Park Hills, MO

1:12 AM CST on November 27, 2014 (GMT -0600)
Park Hills | Change Station
CLOSE
Current Station
Personal Weather Station
Location: Park Hills, MO
Elevation: 823 ft
Nearby Weather Stations

Elev 823 ft 37.85 °N, 90.50 °W | Updated 173 days ago

Cloudy
Cloudy
29 °F
Feels Like 21 °F
N
10
Wind Variable Wind from NW
Gusts 18 mph

Today
High -- | Low -- °F
--% Chance of Precip.
Yesterday
High -- | Low -- °F
Precip. -- in
6:54 AM 4:44 PM
Waxing Crescent, 27% visible
Pressure 30.21 in
Visibility 10.0 miles
Clouds Overcast 1000 ft
Windchill 21 °F
Dew Point 27 °F
Humidity 93%
Rainfall 0.08 in
Snow Depth Not available.
UV 0 out of 12
Pollen .40 out of 12
Air Quality Not available.
Flu Activity Not available.
METAR KFAM 270655Z AUTO 27013G18KT 10SM OVC010 01/M02 A3021 RMK AO1

More Conditions Fewer Conditions

Pressure 30.21 in
Visibility 10.0 miles
Clouds Overcast 1000 ft
Windchill 21 °F
Dew Point 27 °F
Humidity 93%
Rainfall 0.08 in
Snow Depth Not available.
UV 0 out of 12
Pollen .40 out of 12
Air Quality Not available.
Flu Activity Not available.
METAR KFAM 270655Z AUTO 27013G18KT 10SM OVC010 01/M02 A3021 RMK AO1

More Conditions Fewer Conditions

10-Day Weather Forecast

Almanac

Astronomy

Nov. 27, 2014 Rise Set
Actual Time
Civil Twilight
Nautical Twilight
Astronomical Twilight
Moon
Length of Visible Light
Length of Day
Tomorrow will be .
, % of the Moon is Illuminated

Today's Extremes

State Highs State Lows

Community

WunderPhotos

Upload Photos

1,773,966 photos uploaded!

WunderBlogs® & News

Nearby

Air Quality

  Air Quality AQ Index Pollutant
Not available.

Snow Depth

Station Depth Elevation

Earthquake Activity

City Distance Mag. Time & Date
Minimum magnitude displayed is 2.5.

Coastal Water Temperatures

Place Temperature

Nearby Weather Stations